SYRK1: Arkansas R at Syracuse, KS

                                SHEF ID:       SYRK1     ARKANSAS R AT SYRACUSE, KS
STATION TYPE:
Regulating: Stage = 10.00, Flow = 2000

PRECIP STAGE RIV-FLOW BAT-LOAD
in ft cfs volt
Ccp-Rev Ccp-Rev Ccp-Rev Ccp-Rev
(America/Chicago)
07/24 00:00 0.00 5.99 359 12.65
07/24 01:00 0.00 6.01 363 12.65
07/24 02:00 0.00 6.02 365 12.60
07/24 03:00 0.00 6.07 375 12.60
07/24 04:00 0.00 6.09 379 12.60
07/24 05:00 0.00 6.01 363 12.54
07/24 06:00 0.00 6.01 363 12.54
07/24 07:00 0.00 6.00 361 12.54
07/24 08:00 0.00 5.87 335 12.54
07/24 09:00 0.00 5.85 331 12.60
07/24 10:00 0.00 6.03 367 13.07
07/24 11:00 0.00 5.80 321 13.48
07/24 12:00 0.00 5.82 325 13.48
07/24 13:00 0.00 5.78 317 13.42
07/24 14:00 0.00 5.80 321 13.36
07/24 15:00 0.00 5.82 325 13.36
07/24 16:00 0.00 5.82 325 13.30
07/24 17:00 0.00 5.83 327 13.30
07/24 18:00 0.00 5.82 325 13.24
07/24 19:00 0.00 5.82 325 13.24
07/24 20:00 0.00 5.82 325 12.95
07/24 21:00 0.00 5.81 323 12.77
07/24 22:00 0.00 5.82 325 12.71
07/24 23:00 ---- ---- ---- ----
Data processed at Thu 25Jul2024 04:28 GMT

Parsing this webpage?

Checkout our new Data API! CWMSDataAPI (CDA)

Timeseries IDs (TSIDs)

TSIDs used from left to right in the data table
SYRA.Precip-Inc.Total.1Hour.1Hour.Ccp-Rev
SYRA.Stage.Inst.1Hour.0.Ccp-Rev
SYRA.Flow.Inst.1Hour.0.Ccp-Rev
SYRA.Volt-Battery Load.Inst.1Hour.0.Ccp-Rev

                            

All information presented herein is the property of the government of the United States of America and may be revised or deleted at any time without prior notice. Dissemination of this information without the expressed written consent of the Public Affairs Office, Tulsa District U.S. Army Corps of Engineers is strictly prohibited. These data are gathered electronically and, as presented, have NOT undergone any form of quality control. These data are NOT guaranteed to be valid or correct.